sensor_id;sensor_type;location;lat;lon;timestamp;P1;durP1;ratioP1;P2;durP2;ratioP2
11709;SDS011;5911;51.036;6.972;2023-04-03T00:01:10;5.80;;;5.20;;
11709;SDS011;5911;51.036;6.972;2023-04-03T00:03:38;5.40;;;4.90;;
11709;SDS011;5911;51.036;6.972;2023-04-03T00:06:07;6.60;;;5.60;;
11709;SDS011;5911;51.036;6.972;2023-04-03T00:08:37;6.03;;;5.43;;
11709;SDS011;5911;51.036;6.972;2023-04-03T00:11:06;5.73;;;5.07;;
11709;SDS011;5911;51.036;6.972;2023-04-03T00:13:34;6.47;;;5.80;;
11709;SDS011;5911;51.036;6.972;2023-04-03T00:16:03;7.37;;;5.93;;
11709;SDS011;5911;51.036;6.972;2023-04-03T00:18:32;7.40;;;5.77;;
11709;SDS011;5911;51.036;6.972;2023-04-03T00:20:59;6.47;;;5.73;;
11709;SDS011;5911;51.036;6.972;2023-04-03T00:23:27;5.87;;;5.03;;
11709;SDS011;5911;51.036;6.972;2023-04-03T00:25:55;6.07;;;5.27;;
11709;SDS011;5911;51.036;6.972;2023-04-03T00:28:23;5.53;;;4.93;;
11709;SDS011;5911;51.036;6.972;2023-04-03T00:30:51;5.57;;;5.07;;
11709;SDS011;5911;51.036;6.972;2023-04-03T00:33:20;6.33;;;5.73;;
11709;SDS011;5911;51.036;6.972;2023-04-03T00:35:48;5.60;;;5.10;;
11709;SDS011;5911;51.036;6.972;2023-04-03T00:38:17;5.97;;;5.00;;
11709;SDS011;5911;51.036;6.972;2023-04-03T00:40:46;6.30;;;5.70;;
11709;SDS011;5911;51.036;6.972;2023-04-03T00:43:16;5.97;;;5.10;;
11709;SDS011;5911;51.036;6.972;2023-04-03T00:45:46;7.50;;;5.60;;
11709;SDS011;5911;51.036;6.972;2023-04-03T00:48:16;8.53;;;5.50;;
11709;SDS011;5911;51.036;6.972;2023-04-03T00:50:50;6.73;;;5.20;;
11709;SDS011;5911;51.036;6.972;2023-04-03T00:53:21;5.40;;;4.90;;
11709;SDS011;5911;51.036;6.972;2023-04-03T00:55:52;6.03;;;5.13;;
11709;SDS011;5911;51.036;6.972;2023-04-03T00:58:24;5.50;;;4.97;;
11709;SDS011;5911;51.036;6.972;2023-04-03T01:00:56;5.40;;;4.90;;
11709;SDS011;5911;51.036;6.972;2023-04-03T01:03:26;5.07;;;4.50;;
11709;SDS011;5911;51.036;6.972;2023-04-03T01:05:55;6.10;;;4.70;;
11709;SDS011;5911;51.036;6.972;2023-04-03T01:08:23;5.00;;;4.50;;
11709;SDS011;5911;51.036;6.972;2023-04-03T01:10:53;5.43;;;4.50;;
11709;SDS011;5911;51.036;6.972;2023-04-03T01:13:23;5.47;;;4.50;;
11709;SDS011;5911;51.036;6.972;2023-04-03T01:15:53;4.93;;;4.30;;
11709;SDS011;5911;51.036;6.972;2023-04-03T01:18:22;5.03;;;4.30;;
11709;SDS011;5911;51.036;6.972;2023-04-03T01:23:49;6.13;;;4.30;;
11709;SDS011;5911;51.036;6.972;2023-04-03T01:26:24;9.03;;;4.30;;
11709;SDS011;5911;51.036;6.972;2023-04-03T01:28:54;4.83;;;4.13;;
11709;SDS011;5911;51.036;6.972;2023-04-03T01:31:23;4.60;;;4.20;;
11709;SDS011;5911;51.036;6.972;2023-04-03T01:33:56;9.83;;;4.70;;
11709;SDS011;5911;51.036;6.972;2023-04-03T01:36:26;5.80;;;4.00;;
11709;SDS011;5911;51.036;6.972;2023-04-03T01:38:57;5.67;;;4.20;;
11709;SDS011;5911;51.036;6.972;2023-04-03T01:41:26;5.60;;;3.97;;
11709;SDS011;5911;51.036;6.972;2023-04-03T01:44:02;5.00;;;4.13;;
11709;SDS011;5911;51.036;6.972;2023-04-03T01:46:31;4.27;;;3.87;;
11709;SDS011;5911;51.036;6.972;2023-04-03T01:49:00;4.93;;;4.43;;
11709;SDS011;5911;51.036;6.972;2023-04-03T01:51:28;5.13;;;3.87;;
11709;SDS011;5911;51.036;6.972;2023-04-03T01:53:56;5.00;;;4.20;;
11709;SDS011;5911;51.036;6.972;2023-04-03T01:56:24;5.13;;;4.67;;
11709;SDS011;5911;51.036;6.972;2023-04-03T01:58:53;9.00;;;4.87;;
11709;SDS011;5911;51.036;6.972;2023-04-03T02:01:21;5.20;;;4.70;;
11709;SDS011;5911;51.036;6.972;2023-04-03T02:03:49;5.47;;;4.40;;
11709;SDS011;5911;51.036;6.972;2023-04-03T02:06:18;5.17;;;4.13;;
11709;SDS011;5911;51.036;6.972;2023-04-03T02:08:46;4.87;;;3.90;;
11709;SDS011;5911;51.036;6.972;2023-04-03T02:11:14;7.20;;;4.23;;
11709;SDS011;5911;51.036;6.972;2023-04-03T02:13:42;4.53;;;3.63;;
11709;SDS011;5911;51.036;6.972;2023-04-03T02:16:10;3.90;;;3.50;;
11709;SDS011;5911;51.036;6.972;2023-04-03T02:18:40;4.20;;;3.83;;
11709;SDS011;5911;51.036;6.972;2023-04-03T02:21:08;4.67;;;3.77;;
11709;SDS011;5911;51.036;6.972;2023-04-03T02:23:37;4.63;;;3.93;;
11709;SDS011;5911;51.036;6.972;2023-04-03T02:26:05;4.07;;;3.67;;
11709;SDS011;5911;51.036;6.972;2023-04-03T02:28:35;6.13;;;3.77;;
11709;SDS011;5911;51.036;6.972;2023-04-03T02:31:04;4.00;;;3.60;;
11709;SDS011;5911;51.036;6.972;2023-04-03T02:33:35;4.43;;;4.03;;
11709;SDS011;5911;51.036;6.972;2023-04-03T02:36:07;3.97;;;3.57;;
11709;SDS011;5911;51.036;6.972;2023-04-03T02:38:39;3.87;;;3.57;;
11709;SDS011;5911;51.036;6.972;2023-04-03T02:41:09;5.27;;;3.80;;
11709;SDS011;5911;51.036;6.972;2023-04-03T02:43:38;4.20;;;3.90;;
11709;SDS011;5911;51.036;6.972;2023-04-03T02:46:06;4.23;;;3.83;;
11709;SDS011;5911;51.036;6.972;2023-04-03T02:48:36;3.93;;;3.63;;
11709;SDS011;5911;51.036;6.972;2023-04-03T02:51:04;6.80;;;3.97;;
11709;SDS011;5911;51.036;6.972;2023-04-03T02:53:32;4.73;;;3.70;;
11709;SDS011;5911;51.036;6.972;2023-04-03T02:56:08;3.67;;;3.37;;
11709;SDS011;5911;51.036;6.972;2023-04-03T02:58:36;4.30;;;3.87;;
11709;SDS011;5911;51.036;6.972;2023-04-03T03:01:05;5.03;;;3.47;;
11709;SDS011;5911;51.036;6.972;2023-04-03T03:03:33;4.53;;;3.67;;
11709;SDS011;5911;51.036;6.972;2023-04-03T03:06:02;6.77;;;3.60;;
11709;SDS011;5911;51.036;6.972;2023-04-03T03:08:32;4.93;;;3.83;;
11709;SDS011;5911;51.036;6.972;2023-04-03T03:11:00;6.63;;;3.30;;
11709;SDS011;5911;51.036;6.972;2023-04-03T03:13:30;4.67;;;3.13;;
11709;SDS011;5911;51.036;6.972;2023-04-03T03:15:58;3.37;;;3.07;;
11709;SDS011;5911;51.036;6.972;2023-04-03T03:18:27;3.40;;;3.10;;
11709;SDS011;5911;51.036;6.972;2023-04-03T03:20:55;3.63;;;3.33;;
11709;SDS011;5911;51.036;6.972;2023-04-03T03:23:25;6.37;;;3.77;;
11709;SDS011;5911;51.036;6.972;2023-04-03T03:25:54;4.60;;;3.20;;
11709;SDS011;5911;51.036;6.972;2023-04-03T03:28:22;6.00;;;3.70;;
11709;SDS011;5911;51.036;6.972;2023-04-03T03:30:52;3.47;;;2.80;;
11709;SDS011;5911;51.036;6.972;2023-04-03T03:33:21;4.83;;;2.90;;
11709;SDS011;5911;51.036;6.972;2023-04-03T03:35:49;5.83;;;3.10;;
11709;SDS011;5911;51.036;6.972;2023-04-03T03:38:17;4.17;;;3.77;;
11709;SDS011;5911;51.036;6.972;2023-04-03T03:40:46;4.00;;;2.77;;
11709;SDS011;5911;51.036;6.972;2023-04-03T03:43:16;3.80;;;2.83;;
11709;SDS011;5911;51.036;6.972;2023-04-03T03:45:46;2.73;;;2.50;;
11709;SDS011;5911;51.036;6.972;2023-04-03T03:48:19;5.17;;;3.97;;
11709;SDS011;5911;51.036;6.972;2023-04-03T03:50:47;3.10;;;2.63;;
11709;SDS011;5911;51.036;6.972;2023-04-03T03:53:17;8.17;;;3.33;;
11709;SDS011;5911;51.036;6.972;2023-04-03T03:55:47;3.97;;;2.80;;
11709;SDS011;5911;51.036;6.972;2023-04-03T03:58:15;3.13;;;2.70;;
11709;SDS011;5911;51.036;6.972;2023-04-03T04:00:43;3.93;;;2.50;;
11709;SDS011;5911;51.036;6.972;2023-04-03T04:03:11;5.20;;;2.90;;
11709;SDS011;5911;51.036;6.972;2023-04-03T04:05:41;5.67;;;2.57;;
11709;SDS011;5911;51.036;6.972;2023-04-03T04:08:08;3.77;;;2.60;;
11709;SDS011;5911;51.036;6.972;2023-04-03T04:10:37;3.80;;;2.40;;
11709;SDS011;5911;51.036;6.972;2023-04-03T04:13:06;3.47;;;2.37;;
11709;SDS011;5911;51.036;6.972;2023-04-03T04:15:39;3.87;;;2.70;;
11709;SDS011;5911;51.036;6.972;2023-04-03T04:18:35;3.73;;;2.50;;
11709;SDS011;5911;51.036;6.972;2023-04-03T04:21:10;5.47;;;2.63;;
11709;SDS011;5911;51.036;6.972;2023-04-03T04:23:40;2.93;;;2.43;;
11709;SDS011;5911;51.036;6.972;2023-04-03T04:26:08;3.13;;;2.03;;
11709;SDS011;5911;51.036;6.972;2023-04-03T04:28:38;3.50;;;2.47;;
11709;SDS011;5911;51.036;6.972;2023-04-03T04:31:09;4.87;;;2.33;;
11709;SDS011;5911;51.036;6.972;2023-04-03T04:33:37;7.13;;;2.40;;
11709;SDS011;5911;51.036;6.972;2023-04-03T04:36:06;4.57;;;2.17;;
11709;SDS011;5911;51.036;6.972;2023-04-03T04:38:36;4.00;;;2.43;;
11709;SDS011;5911;51.036;6.972;2023-04-03T04:41:05;4.63;;;2.43;;
11709;SDS011;5911;51.036;6.972;2023-04-03T04:43:33;3.70;;;2.27;;
11709;SDS011;5911;51.036;6.972;2023-04-03T04:46:02;3.80;;;2.30;;
11709;SDS011;5911;51.036;6.972;2023-04-03T04:48:35;3.13;;;2.23;;
11709;SDS011;5911;51.036;6.972;2023-04-03T04:51:07;3.80;;;2.20;;
11709;SDS011;5911;51.036;6.972;2023-04-03T04:53:37;3.57;;;2.20;;
11709;SDS011;5911;51.036;6.972;2023-04-03T04:56:07;3.70;;;2.20;;
11709;SDS011;5911;51.036;6.972;2023-04-03T04:58:36;5.13;;;2.37;;
11709;SDS011;5911;51.036;6.972;2023-04-03T05:01:06;4.37;;;2.67;;
11709;SDS011;5911;51.036;6.972;2023-04-03T05:03:43;9.17;;;2.33;;
11709;SDS011;5911;51.036;6.972;2023-04-03T05:06:10;3.80;;;2.10;;
11709;SDS011;5911;51.036;6.972;2023-04-03T05:08:40;3.73;;;2.40;;
11709;SDS011;5911;51.036;6.972;2023-04-03T05:11:08;3.63;;;2.37;;
11709;SDS011;5911;51.036;6.972;2023-04-03T05:13:37;3.73;;;2.20;;
11709;SDS011;5911;51.036;6.972;2023-04-03T05:16:05;3.00;;;2.53;;
11709;SDS011;5911;51.036;6.972;2023-04-03T05:18:33;2.47;;;1.97;;
11709;SDS011;5911;51.036;6.972;2023-04-03T05:21:06;4.77;;;2.50;;
11709;SDS011;5911;51.036;6.972;2023-04-03T05:23:34;4.00;;;2.00;;
11709;SDS011;5911;51.036;6.972;2023-04-03T05:26:04;4.50;;;2.37;;
11709;SDS011;5911;51.036;6.972;2023-04-03T05:28:33;3.03;;;2.10;;
11709;SDS011;5911;51.036;6.972;2023-04-03T05:31:03;4.63;;;2.03;;
11709;SDS011;5911;51.036;6.972;2023-04-03T05:33:34;2.17;;;1.93;;
11709;SDS011;5911;51.036;6.972;2023-04-03T05:36:04;5.50;;;2.50;;
11709;SDS011;5911;51.036;6.972;2023-04-03T05:38:38;3.73;;;2.47;;
11709;SDS011;5911;51.036;6.972;2023-04-03T05:41:09;5.13;;;2.27;;
11709;SDS011;5911;51.036;6.972;2023-04-03T05:43:37;6.23;;;2.70;;
11709;SDS011;5911;51.036;6.972;2023-04-03T05:46:09;9.33;;;3.43;;
11709;SDS011;5911;51.036;6.972;2023-04-03T05:48:39;3.80;;;2.80;;
11709;SDS011;5911;51.036;6.972;2023-04-03T05:51:13;2.97;;;2.23;;
11709;SDS011;5911;51.036;6.972;2023-04-03T05:53:43;6.07;;;2.57;;
11709;SDS011;5911;51.036;6.972;2023-04-03T05:56:13;5.17;;;2.70;;
11709;SDS011;5911;51.036;6.972;2023-04-03T05:58:44;4.93;;;2.50;;
11709;SDS011;5911;51.036;6.972;2023-04-03T06:01:12;4.73;;;2.60;;
11709;SDS011;5911;51.036;6.972;2023-04-03T06:03:42;8.13;;;2.90;;
11709;SDS011;5911;51.036;6.972;2023-04-03T06:06:11;4.97;;;2.40;;
11709;SDS011;5911;51.036;6.972;2023-04-03T06:08:43;4.53;;;2.80;;
11709;SDS011;5911;51.036;6.972;2023-04-03T06:11:13;2.93;;;2.37;;
11709;SDS011;5911;51.036;6.972;2023-04-03T06:13:41;6.53;;;2.53;;
11709;SDS011;5911;51.036;6.972;2023-04-03T06:16:11;2.63;;;2.20;;
11709;SDS011;5911;51.036;6.972;2023-04-03T06:18:41;6.20;;;2.87;;
11709;SDS011;5911;51.036;6.972;2023-04-03T06:21:09;5.80;;;2.63;;
11709;SDS011;5911;51.036;6.972;2023-04-03T06:23:39;3.73;;;2.50;;
11709;SDS011;5911;51.036;6.972;2023-04-03T06:26:08;5.97;;;2.60;;
11709;SDS011;5911;51.036;6.972;2023-04-03T06:28:37;5.27;;;2.90;;
11709;SDS011;5911;51.036;6.972;2023-04-03T06:31:05;4.77;;;2.80;;
11709;SDS011;5911;51.036;6.972;2023-04-03T06:33:33;2.20;;;2.00;;
11709;SDS011;5911;51.036;6.972;2023-04-03T06:36:03;4.43;;;2.33;;
11709;SDS011;5911;51.036;6.972;2023-04-03T06:38:32;3.77;;;1.97;;
11709;SDS011;5911;51.036;6.972;2023-04-03T06:40:59;4.83;;;2.30;;
11709;SDS011;5911;51.036;6.972;2023-04-03T06:43:27;3.60;;;1.90;;
11709;SDS011;5911;51.036;6.972;2023-04-03T06:45:56;4.93;;;2.43;;
11709;SDS011;5911;51.036;6.972;2023-04-03T06:48:27;3.53;;;2.10;;
11709;SDS011;5911;51.036;6.972;2023-04-03T06:50:55;4.27;;;2.07;;
11709;SDS011;5911;51.036;6.972;2023-04-03T06:53:23;4.80;;;2.13;;
11709;SDS011;5911;51.036;6.972;2023-04-03T06:56:00;4.50;;;2.20;;
11709;SDS011;5911;51.036;6.972;2023-04-03T06:58:27;6.10;;;2.53;;
11709;SDS011;5911;51.036;6.972;2023-04-03T07:00:57;3.30;;;1.90;;
11709;SDS011;5911;51.036;6.972;2023-04-03T07:03:24;2.90;;;2.00;;
11709;SDS011;5911;51.036;6.972;2023-04-03T07:05:52;4.23;;;2.30;;
11709;SDS011;5911;51.036;6.972;2023-04-03T07:08:20;5.77;;;2.03;;
11709;SDS011;5911;51.036;6.972;2023-04-03T07:10:49;3.57;;;1.80;;
11709;SDS011;5911;51.036;6.972;2023-04-03T07:13:17;4.80;;;2.10;;
11709;SDS011;5911;51.036;6.972;2023-04-03T07:15:45;4.37;;;2.17;;
11709;SDS011;5911;51.036;6.972;2023-04-03T07:18:14;5.20;;;2.77;;
11709;SDS011;5911;51.036;6.972;2023-04-03T07:20:43;10.33;;;3.07;;
11709;SDS011;5911;51.036;6.972;2023-04-03T07:23:11;3.53;;;2.20;;
11709;SDS011;5911;51.036;6.972;2023-04-03T07:25:42;4.17;;;2.27;;
11709;SDS011;5911;51.036;6.972;2023-04-03T07:28:10;3.40;;;2.13;;
11709;SDS011;5911;51.036;6.972;2023-04-03T07:30:49;3.73;;;1.70;;
11709;SDS011;5911;51.036;6.972;2023-04-03T07:33:21;3.00;;;1.70;;
11709;SDS011;5911;51.036;6.972;2023-04-03T07:35:50;2.97;;;1.70;;
11709;SDS011;5911;51.036;6.972;2023-04-03T07:38:18;3.67;;;1.77;;
11709;SDS011;5911;51.036;6.972;2023-04-03T07:40:46;4.07;;;2.23;;
11709;SDS011;5911;51.036;6.972;2023-04-03T07:43:15;4.77;;;2.00;;
11709;SDS011;5911;51.036;6.972;2023-04-03T07:45:43;2.97;;;1.50;;
11709;SDS011;5911;51.036;6.972;2023-04-03T07:48:11;6.03;;;2.13;;
11709;SDS011;5911;51.036;6.972;2023-04-03T07:50:41;2.33;;;1.40;;
11709;SDS011;5911;51.036;6.972;2023-04-03T07:53:10;2.40;;;1.70;;
11709;SDS011;5911;51.036;6.972;2023-04-03T07:55:38;5.27;;;1.77;;
11709;SDS011;5911;51.036;6.972;2023-04-03T07:58:09;5.13;;;1.50;;
11709;SDS011;5911;51.036;6.972;2023-04-03T08:00:43;2.70;;;1.60;;
11709;SDS011;5911;51.036;6.972;2023-04-03T08:03:11;3.43;;;1.40;;
11709;SDS011;5911;51.036;6.972;2023-04-03T08:05:41;1.80;;;1.30;;
11709;SDS011;5911;51.036;6.972;2023-04-03T08:08:11;3.57;;;1.60;;
11709;SDS011;5911;51.036;6.972;2023-04-03T08:10:39;1.60;;;1.20;;
11709;SDS011;5911;51.036;6.972;2023-04-03T08:13:08;3.00;;;1.73;;
11709;SDS011;5911;51.036;6.972;2023-04-03T08:15:36;3.03;;;1.70;;
11709;SDS011;5911;51.036;6.972;2023-04-03T08:18:04;3.10;;;1.60;;
11709;SDS011;5911;51.036;6.972;2023-04-03T08:20:32;3.70;;;1.70;;
11709;SDS011;5911;51.036;6.972;2023-04-03T08:23:02;3.47;;;1.50;;
11709;SDS011;5911;51.036;6.972;2023-04-03T08:25:30;2.20;;;1.37;;
11709;SDS011;5911;51.036;6.972;2023-04-03T08:27:58;3.87;;;1.60;;
11709;SDS011;5911;51.036;6.972;2023-04-03T08:30:29;4.50;;;1.70;;
11709;SDS011;5911;51.036;6.972;2023-04-03T08:32:57;2.17;;;1.50;;
11709;SDS011;5911;51.036;6.972;2023-04-03T08:35:27;2.00;;;1.53;;
11709;SDS011;5911;51.036;6.972;2023-04-03T08:37:55;3.77;;;1.63;;
11709;SDS011;5911;51.036;6.972;2023-04-03T08:40:25;2.90;;;1.47;;
11709;SDS011;5911;51.036;6.972;2023-04-03T08:42:55;3.00;;;1.60;;
11709;SDS011;5911;51.036;6.972;2023-04-03T08:45:37;4.43;;;1.73;;
11709;SDS011;5911;51.036;6.972;2023-04-03T08:48:13;2.87;;;1.30;;
11709;SDS011;5911;51.036;6.972;2023-04-03T08:50:49;3.07;;;1.50;;
11709;SDS011;5911;51.036;6.972;2023-04-03T08:53:21;2.17;;;1.40;;
11709;SDS011;5911;51.036;6.972;2023-04-03T08:55:54;1.83;;;1.23;;
11709;SDS011;5911;51.036;6.972;2023-04-03T08:58:26;2.40;;;1.20;;
11709;SDS011;5911;51.036;6.972;2023-04-03T09:00:57;4.13;;;1.60;;
11709;SDS011;5911;51.036;6.972;2023-04-03T09:03:29;2.60;;;1.27;;
11709;SDS011;5911;51.036;6.972;2023-04-03T09:06:01;2.17;;;1.50;;
11709;SDS011;5911;51.036;6.972;2023-04-03T09:08:32;2.63;;;1.53;;
11709;SDS011;5911;51.036;6.972;2023-04-03T09:11:09;4.57;;;1.23;;
11709;SDS011;5911;51.036;6.972;2023-04-03T09:13:47;2.60;;;1.40;;
11709;SDS011;5911;51.036;6.972;2023-04-03T09:16:20;2.83;;;1.70;;
11709;SDS011;5911;51.036;6.972;2023-04-03T09:19:02;1.80;;;1.23;;
11709;SDS011;5911;51.036;6.972;2023-04-03T09:21:42;4.03;;;1.60;;
11709;SDS011;5911;51.036;6.972;2023-04-03T09:24:10;1.00;;;0.90;;
11709;SDS011;5911;51.036;6.972;2023-04-03T09:26:43;1.60;;;1.10;;
11709;SDS011;5911;51.036;6.972;2023-04-03T09:29:14;2.03;;;1.00;;
11709;SDS011;5911;51.036;6.972;2023-04-03T09:31:48;1.80;;;1.17;;
11709;SDS011;5911;51.036;6.972;2023-04-03T09:34:19;4.60;;;1.30;;
11709;SDS011;5911;51.036;6.972;2023-04-03T09:36:50;3.67;;;1.27;;
11709;SDS011;5911;51.036;6.972;2023-04-03T09:39:21;1.77;;;1.20;;
11709;SDS011;5911;51.036;6.972;2023-04-03T09:41:58;2.17;;;1.50;;
11709;SDS011;5911;51.036;6.972;2023-04-03T09:44:29;3.63;;;1.50;;
11709;SDS011;5911;51.036;6.972;2023-04-03T09:46:58;3.27;;;1.37;;
11709;SDS011;5911;51.036;6.972;2023-04-03T09:49:26;1.70;;;1.33;;
11709;SDS011;5911;51.036;6.972;2023-04-03T09:51:54;2.20;;;1.20;;
11709;SDS011;5911;51.036;6.972;2023-04-03T09:54:35;3.13;;;1.50;;
11709;SDS011;5911;51.036;6.972;2023-04-03T09:57:11;2.57;;;1.43;;
11709;SDS011;5911;51.036;6.972;2023-04-03T09:59:42;3.07;;;1.40;;
11709;SDS011;5911;51.036;6.972;2023-04-03T10:05:03;3.43;;;1.50;;
11709;SDS011;5911;51.036;6.972;2023-04-03T10:07:35;2.20;;;1.23;;
11709;SDS011;5911;51.036;6.972;2023-04-03T10:10:15;4.40;;;1.40;;
11709;SDS011;5911;51.036;6.972;2023-04-03T10:12:48;5.00;;;1.67;;
11709;SDS011;5911;51.036;6.972;2023-04-03T10:15:16;2.33;;;1.40;;
11709;SDS011;5911;51.036;6.972;2023-04-03T10:17:49;2.77;;;1.53;;
11709;SDS011;5911;51.036;6.972;2023-04-03T10:20:26;2.23;;;1.37;;
11709;SDS011;5911;51.036;6.972;2023-04-03T10:23:00;2.80;;;1.50;;
11709;SDS011;5911;51.036;6.972;2023-04-03T10:25:39;2.70;;;1.37;;
11709;SDS011;5911;51.036;6.972;2023-04-03T10:28:14;2.10;;;1.30;;
11709;SDS011;5911;51.036;6.972;2023-04-03T10:30:49;1.93;;;1.20;;
11709;SDS011;5911;51.036;6.972;2023-04-03T10:33:25;2.47;;;1.40;;
11709;SDS011;5911;51.036;6.972;2023-04-03T10:36:12;2.23;;;1.40;;
11709;SDS011;5911;51.036;6.972;2023-04-03T10:38:50;2.47;;;1.30;;
11709;SDS011;5911;51.036;6.972;2023-04-03T10:41:28;2.23;;;1.20;;
11709;SDS011;5911;51.036;6.972;2023-04-03T10:44:10;3.53;;;1.40;;
11709;SDS011;5911;51.036;6.972;2023-04-03T10:46:44;2.70;;;1.43;;
11709;SDS011;5911;51.036;6.972;2023-04-03T10:49:22;1.70;;;1.17;;
11709;SDS011;5911;51.036;6.972;2023-04-03T10:51:59;2.30;;;1.23;;
11709;SDS011;5911;51.036;6.972;2023-04-03T10:54:34;2.90;;;1.47;;
11709;SDS011;5911;51.036;6.972;2023-04-03T10:57:16;1.80;;;1.07;;
11709;SDS011;5911;51.036;6.972;2023-04-03T11:00:01;2.90;;;1.10;;
11709;SDS011;5911;51.036;6.972;2023-04-03T11:02:36;1.70;;;1.07;;
11709;SDS011;5911;51.036;6.972;2023-04-03T11:05:08;2.87;;;1.20;;
11709;SDS011;5911;51.036;6.972;2023-04-03T11:07:45;5.77;;;1.37;;
11709;SDS011;5911;51.036;6.972;2023-04-03T11:10:19;2.50;;;1.07;;
11709;SDS011;5911;51.036;6.972;2023-04-03T11:12:52;1.33;;;0.90;;
11709;SDS011;5911;51.036;6.972;2023-04-03T11:15:25;2.93;;;1.10;;
11709;SDS011;5911;51.036;6.972;2023-04-03T11:18:00;2.83;;;1.10;;
11709;SDS011;5911;51.036;6.972;2023-04-03T11:20:32;1.37;;;1.00;;
11709;SDS011;5911;51.036;6.972;2023-04-03T11:23:01;2.17;;;0.90;;
11709;SDS011;5911;51.036;6.972;2023-04-03T11:25:31;1.33;;;1.10;;
11709;SDS011;5911;51.036;6.972;2023-04-03T11:28:03;2.17;;;1.10;;
11709;SDS011;5911;51.036;6.972;2023-04-03T11:30:39;1.63;;;0.90;;
11709;SDS011;5911;51.036;6.972;2023-04-03T11:36:09;1.87;;;0.93;;
11709;SDS011;5911;51.036;6.972;2023-04-03T11:38:51;1.30;;;0.93;;
11709;SDS011;5911;51.036;6.972;2023-04-03T11:41:25;3.23;;;0.80;;
11709;SDS011;5911;51.036;6.972;2023-04-03T11:43:57;2.07;;;0.90;;
11709;SDS011;5911;51.036;6.972;2023-04-03T11:55:42;4.70;;;1.20;;
11709;SDS011;5911;51.036;6.972;2023-04-03T11:58:13;1.88;;;1.13;;
11709;SDS011;5911;51.036;6.972;2023-04-03T12:00:47;2.13;;;1.10;;
11709;SDS011;5911;51.036;6.972;2023-04-03T12:03:35;2.33;;;1.00;;
11709;SDS011;5911;51.036;6.972;2023-04-03T12:06:49;1.00;;;0.82;;
11709;SDS011;5911;51.036;6.972;2023-04-03T12:09:34;2.00;;;1.00;;
11709;SDS011;5911;51.036;6.972;2023-04-03T12:12:36;2.13;;;0.83;;
11709;SDS011;5911;51.036;6.972;2023-04-03T12:15:23;1.13;;;0.97;;
11709;SDS011;5911;51.036;6.972;2023-04-03T12:17:54;2.72;;;0.95;;
11709;SDS011;5911;51.036;6.972;2023-04-03T12:23:30;1.20;;;0.90;;
11709;SDS011;5911;51.036;6.972;2023-04-03T12:28:57;1.48;;;0.80;;
11709;SDS011;5911;51.036;6.972;2023-04-03T12:31:31;1.73;;;1.10;;
11709;SDS011;5911;51.036;6.972;2023-04-03T12:34:12;1.48;;;0.80;;
11709;SDS011;5911;51.036;6.972;2023-04-03T12:36:54;1.23;;;0.80;;
11709;SDS011;5911;51.036;6.972;2023-04-03T12:45:26;1.65;;;0.90;;
11709;SDS011;5911;51.036;6.972;2023-04-03T12:47:55;4.72;;;1.30;;
11709;SDS011;5911;51.036;6.972;2023-04-03T12:50:24;2.88;;;1.10;;
11709;SDS011;5911;51.036;6.972;2023-04-03T12:52:59;1.45;;;1.10;;
11709;SDS011;5911;51.036;6.972;2023-04-03T12:55:29;2.20;;;1.13;;
11709;SDS011;5911;51.036;6.972;2023-04-03T12:57:57;1.33;;;0.88;;
11709;SDS011;5911;51.036;6.972;2023-04-03T13:00:41;2.17;;;0.80;;
11709;SDS011;5911;51.036;6.972;2023-04-03T13:03:20;2.05;;;0.90;;
11709;SDS011;5911;51.036;6.972;2023-04-03T13:05:51;2.65;;;0.80;;
11709;SDS011;5911;51.036;6.972;2023-04-03T13:08:20;1.00;;;0.90;;
11709;SDS011;5911;51.036;6.972;2023-04-03T13:10:53;1.98;;;1.00;;
11709;SDS011;5911;51.036;6.972;2023-04-03T13:13:24;1.42;;;1.00;;
11709;SDS011;5911;51.036;6.972;2023-04-03T13:15:52;3.03;;;1.00;;
11709;SDS011;5911;51.036;6.972;2023-04-03T13:18:22;1.00;;;0.90;;
11709;SDS011;5911;51.036;6.972;2023-04-03T13:21:02;1.52;;;1.00;;
11709;SDS011;5911;51.036;6.972;2023-04-03T13:23:34;2.20;;;1.20;;
11709;SDS011;5911;51.036;6.972;2023-04-03T13:26:03;1.40;;;0.95;;
11709;SDS011;5911;51.036;6.972;2023-04-03T13:28:33;2.38;;;1.33;;
11709;SDS011;5911;51.036;6.972;2023-04-03T13:31:03;1.73;;;1.02;;
11709;SDS011;5911;51.036;6.972;2023-04-03T13:33:36;2.33;;;1.17;;
11709;SDS011;5911;51.036;6.972;2023-04-03T13:36:06;2.13;;;1.10;;
11709;SDS011;5911;51.036;6.972;2023-04-03T13:38:40;1.90;;;0.90;;
11709;SDS011;5911;51.036;6.972;2023-04-03T13:41:21;1.55;;;0.95;;
11709;SDS011;5911;51.036;6.972;2023-04-03T13:43:52;0.98;;;0.73;;
11709;SDS011;5911;51.036;6.972;2023-04-03T13:46:35;1.88;;;1.00;;
11709;SDS011;5911;51.036;6.972;2023-04-03T13:49:09;2.88;;;1.30;;
11709;SDS011;5911;51.036;6.972;2023-04-03T13:51:45;1.95;;;1.00;;
11709;SDS011;5911;51.036;6.972;2023-04-03T13:54:32;3.40;;;1.10;;
11709;SDS011;5911;51.036;6.972;2023-04-03T13:57:02;2.22;;;1.13;;
11709;SDS011;5911;51.036;6.972;2023-04-03T13:59:31;1.98;;;1.08;;
11709;SDS011;5911;51.036;6.972;2023-04-03T14:02:12;1.65;;;1.00;;
11709;SDS011;5911;51.036;6.972;2023-04-03T14:04:45;2.17;;;1.55;;
11709;SDS011;5911;51.036;6.972;2023-04-03T14:07:17;2.92;;;1.23;;
11709;SDS011;5911;51.036;6.972;2023-04-03T14:09:48;1.17;;;1.00;;
11709;SDS011;5911;51.036;6.972;2023-04-03T14:12:17;3.35;;;1.20;;
11709;SDS011;5911;51.036;6.972;2023-04-03T14:14:56;3.58;;;1.50;;
11709;SDS011;5911;51.036;6.972;2023-04-03T14:17:34;2.00;;;1.10;;
11709;SDS011;5911;51.036;6.972;2023-04-03T14:20:02;2.13;;;1.25;;
11709;SDS011;5911;51.036;6.972;2023-04-03T14:22:31;2.35;;;1.30;;
11709;SDS011;5911;51.036;6.972;2023-04-03T14:25:02;1.42;;;1.10;;
11709;SDS011;5911;51.036;6.972;2023-04-03T14:27:33;1.95;;;1.00;;
11709;SDS011;5911;51.036;6.972;2023-04-03T14:30:02;1.08;;;0.85;;
11709;SDS011;5911;51.036;6.972;2023-04-03T14:32:32;1.60;;;1.00;;
11709;SDS011;5911;51.036;6.972;2023-04-03T14:35:00;3.47;;;1.50;;
11709;SDS011;5911;51.036;6.972;2023-04-03T14:37:30;1.45;;;1.10;;
11709;SDS011;5911;51.036;6.972;2023-04-03T14:39:59;2.38;;;1.23;;
11709;SDS011;5911;51.036;6.972;2023-04-03T14:42:32;4.90;;;2.03;;
11709;SDS011;5911;51.036;6.972;2023-04-03T14:45:02;2.72;;;1.20;;
11709;SDS011;5911;51.036;6.972;2023-04-03T14:47:31;1.92;;;1.08;;
11709;SDS011;5911;51.036;6.972;2023-04-03T14:50:00;1.50;;;0.90;;
11709;SDS011;5911;51.036;6.972;2023-04-03T14:52:31;1.50;;;1.02;;
11709;SDS011;5911;51.036;6.972;2023-04-03T14:55:00;2.35;;;1.20;;
11709;SDS011;5911;51.036;6.972;2023-04-03T14:57:33;3.17;;;1.15;;
11709;SDS011;5911;51.036;6.972;2023-04-03T15:00:02;1.70;;;1.02;;
11709;SDS011;5911;51.036;6.972;2023-04-03T15:02:31;2.15;;;1.38;;
11709;SDS011;5911;51.036;6.972;2023-04-03T15:05:01;3.45;;;1.25;;
11709;SDS011;5911;51.036;6.972;2023-04-03T15:07:32;2.17;;;1.20;;
11709;SDS011;5911;51.036;6.972;2023-04-03T15:10:03;2.50;;;1.27;;
11709;SDS011;5911;51.036;6.972;2023-04-03T15:12:42;1.65;;;1.25;;
11709;SDS011;5911;51.036;6.972;2023-04-03T15:15:11;1.90;;;1.20;;
11709;SDS011;5911;51.036;6.972;2023-04-03T15:17:39;2.22;;;1.30;;
11709;SDS011;5911;51.036;6.972;2023-04-03T15:20:11;1.58;;;1.17;;
11709;SDS011;5911;51.036;6.972;2023-04-03T15:22:41;2.60;;;1.30;;
11709;SDS011;5911;51.036;6.972;2023-04-03T15:25:09;1.70;;;1.20;;
11709;SDS011;5911;51.036;6.972;2023-04-03T15:27:37;2.35;;;1.15;;
11709;SDS011;5911;51.036;6.972;2023-04-03T15:30:11;3.37;;;1.13;;
11709;SDS011;5911;51.036;6.972;2023-04-03T15:32:43;2.30;;;1.30;;
11709;SDS011;5911;51.036;6.972;2023-04-03T15:35:11;2.75;;;1.75;;
11709;SDS011;5911;51.036;6.972;2023-04-03T15:37:39;2.35;;;1.10;;
11709;SDS011;5911;51.036;6.972;2023-04-03T15:40:07;3.65;;;1.52;;
11709;SDS011;5911;51.036;6.972;2023-04-03T15:42:36;2.77;;;1.47;;
11709;SDS011;5911;51.036;6.972;2023-04-03T15:45:05;1.60;;;1.40;;
11709;SDS011;5911;51.036;6.972;2023-04-03T15:47:35;2.20;;;1.02;;
11709;SDS011;5911;51.036;6.972;2023-04-03T15:50:04;3.47;;;1.43;;
11709;SDS011;5911;51.036;6.972;2023-04-03T15:52:34;1.87;;;1.30;;
11709;SDS011;5911;51.036;6.972;2023-04-03T15:55:03;3.87;;;1.77;;